sensor_id;sensor_type;location;lat;lon;timestamp;noise_LAeq;noise_LA_min;noise_LA_max;noise_LA01;noise_LA95
49732;Laerm;43666;51.442;6.778;2024-03-08T00:02:00;37.22;32.93;39.70;;
49732;Laerm;43666;51.442;6.778;2024-03-08T00:04:26;37.21;32.93;40.03;;
49732;Laerm;43666;51.442;6.778;2024-03-08T00:06:52;37.23;32.93;39.81;;
49732;Laerm;43666;51.442;6.778;2024-03-08T00:09:17;37.24;32.93;39.92;;
49732;Laerm;43666;51.442;6.778;2024-03-08T00:11:43;37.22;32.93;40.03;;
49732;Laerm;43666;51.442;6.778;2024-03-08T00:14:09;37.21;32.35;40.03;;
49732;Laerm;43666;51.442;6.778;2024-03-08T00:16:35;37.22;33.44;40.23;;
49732;Laerm;43666;51.442;6.778;2024-03-08T00:19:03;37.24;32.35;39.92;;
49732;Laerm;43666;51.442;6.778;2024-03-08T00:21:30;37.22;32.93;39.70;;
49732;Laerm;43666;51.442;6.778;2024-03-08T00:23:57;37.20;32.35;40.13;;
49732;Laerm;43666;51.442;6.778;2024-03-08T00:26:23;37.19;32.35;39.92;;
49732;Laerm;43666;51.442;6.778;2024-03-08T00:28:49;37.18;31.68;39.92;;
49732;Laerm;43666;51.442;6.778;2024-03-08T00:31:14;37.20;32.35;39.81;;
49732;Laerm;43666;51.442;6.778;2024-03-08T00:33:42;37.21;32.93;40.03;;
49732;Laerm;43666;51.442;6.778;2024-03-08T00:36:08;37.20;32.93;40.13;;
49732;Laerm;43666;51.442;6.778;2024-03-08T00:38:34;37.18;31.68;40.33;;
49732;Laerm;43666;51.442;6.778;2024-03-08T00:41:00;37.17;32.93;39.92;;
49732;Laerm;43666;51.442;6.778;2024-03-08T00:43:29;37.18;32.93;39.81;;
49732;Laerm;43666;51.442;6.778;2024-03-08T00:45:55;37.16;33.44;40.23;;
49732;Laerm;43666;51.442;6.778;2024-03-08T00:48:23;37.16;32.93;39.81;;
49732;Laerm;43666;51.442;6.778;2024-03-08T00:50:49;37.15;31.68;39.70;;
49732;Laerm;43666;51.442;6.778;2024-03-08T00:53:15;37.17;32.35;39.92;;
49732;Laerm;43666;51.442;6.778;2024-03-08T00:55:41;37.16;32.93;39.92;;
49732;Laerm;43666;51.442;6.778;2024-03-08T00:58:06;37.12;31.68;40.33;;
49732;Laerm;43666;51.442;6.778;2024-03-08T01:00:35;37.12;31.68;40.03;;
49732;Laerm;43666;51.442;6.778;2024-03-08T01:03:00;37.06;32.35;40.03;;
49732;Laerm;43666;51.442;6.778;2024-03-08T01:05:26;37.05;32.35;39.70;;
49732;Laerm;43666;51.442;6.778;2024-03-08T01:07:52;37.06;29.92;40.03;;
49732;Laerm;43666;51.442;6.778;2024-03-08T01:10:17;37.06;32.35;39.92;;
49732;Laerm;43666;51.442;6.778;2024-03-08T01:12:43;37.06;32.35;39.81;;
49732;Laerm;43666;51.442;6.778;2024-03-08T01:15:10;37.06;32.35;40.03;;
49732;Laerm;43666;51.442;6.778;2024-03-08T01:17:39;37.62;32.35;64.81;;
49732;Laerm;43666;51.442;6.778;2024-03-08T01:20:06;40.59;32.93;72.92;;
49732;Laerm;43666;51.442;6.778;2024-03-08T01:22:32;38.32;31.68;68.51;;
49732;Laerm;43666;51.442;6.778;2024-03-08T01:24:57;37.93;32.35;66.54;;
49732;Laerm;43666;51.442;6.778;2024-03-08T01:27:23;37.07;32.93;51.02;;
49732;Laerm;43666;51.442;6.778;2024-03-08T01:29:50;37.03;32.35;39.68;;
49732;Laerm;43666;51.442;6.778;2024-03-08T01:32:16;37.09;32.35;40.33;;
49732;Laerm;43666;51.442;6.778;2024-03-08T01:34:42;37.05;32.93;39.81;;
49732;Laerm;43666;51.442;6.778;2024-03-08T01:37:08;37.04;32.93;40.13;;
49732;Laerm;43666;51.442;6.778;2024-03-08T01:39:33;37.01;32.93;39.81;;
49732;Laerm;43666;51.442;6.778;2024-03-08T01:41:59;37.01;32.35;39.70;;
49732;Laerm;43666;51.442;6.778;2024-03-08T01:44:26;37.00;29.92;39.81;;
49732;Laerm;43666;51.442;6.778;2024-03-08T01:46:51;36.99;32.35;39.81;;
49732;Laerm;43666;51.442;6.778;2024-03-08T01:49:18;36.95;32.58;39.70;;
49732;Laerm;43666;51.442;6.778;2024-03-08T01:51:46;36.96;29.92;39.58;;
49732;Laerm;43666;51.442;6.778;2024-03-08T01:54:12;36.94;32.35;40.03;;
49732;Laerm;43666;51.442;6.778;2024-03-08T01:56:39;36.93;32.35;39.46;;
49732;Laerm;43666;51.442;6.778;2024-03-08T01:59:06;36.91;32.35;39.70;;
49732;Laerm;43666;51.442;6.778;2024-03-08T02:01:33;36.89;31.68;40.13;;
49732;Laerm;43666;51.442;6.778;2024-03-08T02:03:59;36.86;31.68;39.58;;
49732;Laerm;43666;51.442;6.778;2024-03-08T02:06:25;36.85;31.68;40.03;;
49732;Laerm;43666;51.442;6.778;2024-03-08T02:08:51;36.84;31.68;39.70;;
49732;Laerm;43666;51.442;6.778;2024-03-08T02:11:17;36.87;32.35;39.70;;
49732;Laerm;43666;51.442;6.778;2024-03-08T02:13:44;36.86;30.89;39.81;;
49732;Laerm;43666;51.442;6.778;2024-03-08T02:16:10;36.84;31.68;39.57;;
49732;Laerm;43666;51.442;6.778;2024-03-08T02:18:35;36.88;32.35;40.13;;
49732;Laerm;43666;51.442;6.778;2024-03-08T02:21:02;36.86;32.35;40.03;;
49732;Laerm;43666;51.442;6.778;2024-03-08T02:23:28;36.89;31.68;51.23;;
49732;Laerm;43666;51.442;6.778;2024-03-08T02:25:55;36.90;32.35;49.80;;
49732;Laerm;43666;51.442;6.778;2024-03-08T02:28:22;36.86;31.68;39.70;;
49732;Laerm;43666;51.442;6.778;2024-03-08T02:30:48;36.84;31.68;39.70;;
49732;Laerm;43666;51.442;6.778;2024-03-08T02:33:14;36.82;32.00;39.99;;
49732;Laerm;43666;51.442;6.778;2024-03-08T02:35:46;36.81;32.35;39.70;;
49732;Laerm;43666;51.442;6.778;2024-03-08T02:38:16;36.79;31.68;39.70;;
49732;Laerm;43666;51.442;6.778;2024-03-08T02:40:43;36.79;31.68;39.92;;
49732;Laerm;43666;51.442;6.778;2024-03-08T02:43:09;36.73;29.92;39.70;;
49732;Laerm;43666;51.442;6.778;2024-03-08T02:45:35;36.75;31.68;40.13;;
49732;Laerm;43666;51.442;6.778;2024-03-08T02:48:01;36.74;32.35;39.58;;
49732;Laerm;43666;51.442;6.778;2024-03-08T02:50:27;36.74;32.35;39.70;;
49732;Laerm;43666;51.442;6.778;2024-03-08T02:52:54;36.73;32.35;40.43;;
49732;Laerm;43666;51.442;6.778;2024-03-08T02:55:20;36.78;29.57;39.58;;
49732;Laerm;43666;51.442;6.778;2024-03-08T02:57:46;36.76;30.89;39.46;;
49732;Laerm;43666;51.442;6.778;2024-03-08T03:00:14;36.73;30.89;39.58;;
49732;Laerm;43666;51.442;6.778;2024-03-08T03:02:41;36.72;30.89;39.81;;
49732;Laerm;43666;51.442;6.778;2024-03-08T03:05:08;36.70;30.89;39.92;;
49732;Laerm;43666;51.442;6.778;2024-03-08T03:07:35;36.71;29.92;39.81;;
49732;Laerm;43666;51.442;6.778;2024-03-08T03:10:03;36.71;29.92;39.58;;
49732;Laerm;43666;51.442;6.778;2024-03-08T03:12:29;36.66;28.67;39.58;;
49732;Laerm;43666;51.442;6.778;2024-03-08T03:14:55;36.70;31.68;39.34;;
49732;Laerm;43666;51.442;6.778;2024-03-08T03:17:22;36.69;31.68;39.46;;
49732;Laerm;43666;51.442;6.778;2024-03-08T03:19:48;36.71;31.68;39.58;;
49732;Laerm;43666;51.442;6.778;2024-03-08T03:22:21;36.70;31.68;39.46;;
49732;Laerm;43666;51.442;6.778;2024-03-08T03:24:47;36.74;30.89;39.81;;
49732;Laerm;43666;51.442;6.778;2024-03-08T03:27:13;36.74;30.89;39.58;;
49732;Laerm;43666;51.442;6.778;2024-03-08T03:29:41;36.72;30.89;39.70;;
49732;Laerm;43666;51.442;6.778;2024-03-08T03:32:12;36.71;31.68;40.23;;
49732;Laerm;43666;51.442;6.778;2024-03-08T03:34:39;36.67;31.68;39.58;;
49732;Laerm;43666;51.442;6.778;2024-03-08T03:37:05;36.69;29.92;39.78;;
49732;Laerm;43666;51.442;6.778;2024-03-08T03:39:32;36.70;30.89;39.81;;
49732;Laerm;43666;51.442;6.778;2024-03-08T03:42:00;36.69;29.92;39.92;;
49732;Laerm;43666;51.442;6.778;2024-03-08T03:44:28;36.71;30.89;39.46;;
49732;Laerm;43666;51.442;6.778;2024-03-08T03:46:53;36.72;31.68;39.34;;
49732;Laerm;43666;51.442;6.778;2024-03-08T03:49:19;36.71;30.89;39.70;;
49732;Laerm;43666;51.442;6.778;2024-03-08T03:51:45;36.69;29.57;39.58;;
49732;Laerm;43666;51.442;6.778;2024-03-08T03:54:11;36.71;31.68;39.58;;
49732;Laerm;43666;51.442;6.778;2024-03-08T03:56:38;36.71;32.35;39.58;;
49732;Laerm;43666;51.442;6.778;2024-03-08T03:59:05;36.71;31.68;40.03;;
49732;Laerm;43666;51.442;6.778;2024-03-08T04:01:32;36.70;31.68;39.58;;
49732;Laerm;43666;51.442;6.778;2024-03-08T04:03:58;36.76;29.92;39.57;;
49732;Laerm;43666;51.442;6.778;2024-03-08T04:06:24;36.74;32.35;39.81;;
49732;Laerm;43666;51.442;6.778;2024-03-08T04:08:50;36.72;31.68;39.46;;
49732;Laerm;43666;51.442;6.778;2024-03-08T04:11:16;36.70;29.92;39.81;;
49732;Laerm;43666;51.442;6.778;2024-03-08T04:13:42;36.67;31.68;39.34;;
49732;Laerm;43666;51.442;6.778;2024-03-08T04:16:08;36.67;23.90;39.81;;
49732;Laerm;43666;51.442;6.778;2024-03-08T04:18:34;36.68;30.89;39.70;;
49732;Laerm;43666;51.442;6.778;2024-03-08T04:21:02;36.66;30.89;39.58;;
49732;Laerm;43666;51.442;6.778;2024-03-08T04:23:28;36.67;30.89;39.57;;
49732;Laerm;43666;51.442;6.778;2024-03-08T04:25:54;36.65;30.89;40.53;;
49732;Laerm;43666;51.442;6.778;2024-03-08T04:28:19;36.65;31.68;39.70;;
49732;Laerm;43666;51.442;6.778;2024-03-08T04:30:45;36.65;30.54;40.03;;
49732;Laerm;43666;51.442;6.778;2024-03-08T04:33:12;36.67;31.68;39.92;;
49732;Laerm;43666;51.442;6.778;2024-03-08T04:35:40;36.65;31.68;39.46;;
49732;Laerm;43666;51.442;6.778;2024-03-08T04:38:06;36.67;29.92;39.58;;
49732;Laerm;43666;51.442;6.778;2024-03-08T04:40:32;36.65;32.35;39.70;;
49732;Laerm;43666;51.442;6.778;2024-03-08T04:43:00;36.67;30.89;39.70;;
49732;Laerm;43666;51.442;6.778;2024-03-08T04:45:25;36.66;30.54;39.92;;
49732;Laerm;43666;51.442;6.778;2024-03-08T04:47:51;36.66;28.67;39.70;;
49732;Laerm;43666;51.442;6.778;2024-03-08T04:50:18;36.63;31.68;39.70;;
49732;Laerm;43666;51.442;6.778;2024-03-08T04:52:44;36.65;31.68;39.46;;
49732;Laerm;43666;51.442;6.778;2024-03-08T04:55:09;36.63;30.89;39.46;;
49732;Laerm;43666;51.442;6.778;2024-03-08T04:57:35;36.61;30.89;39.92;;
49732;Laerm;43666;51.442;6.778;2024-03-08T05:00:02;36.65;28.67;39.58;;
49732;Laerm;43666;51.442;6.778;2024-03-08T05:02:29;36.65;29.92;39.81;;
49732;Laerm;43666;51.442;6.778;2024-03-08T05:04:56;36.63;30.89;39.34;;
49732;Laerm;43666;51.442;6.778;2024-03-08T05:07:22;36.65;30.89;39.58;;
49732;Laerm;43666;51.442;6.778;2024-03-08T05:09:47;36.64;30.89;39.58;;
49732;Laerm;43666;51.442;6.778;2024-03-08T05:12:17;36.65;31.68;39.58;;
49732;Laerm;43666;51.442;6.778;2024-03-08T05:14:45;36.65;30.54;39.58;;
49732;Laerm;43666;51.442;6.778;2024-03-08T05:17:11;36.63;30.89;39.46;;
49732;Laerm;43666;51.442;6.778;2024-03-08T05:19:37;36.62;30.54;39.58;;
49732;Laerm;43666;51.442;6.778;2024-03-08T05:22:04;36.67;30.89;39.70;;
49732;Laerm;43666;51.442;6.778;2024-03-08T05:24:30;36.64;30.89;39.81;;
49732;Laerm;43666;51.442;6.778;2024-03-08T05:26:56;36.64;30.89;39.34;;
49732;Laerm;43666;51.442;6.778;2024-03-08T05:29:22;36.69;31.68;39.81;;
49732;Laerm;43666;51.442;6.778;2024-03-08T05:31:49;36.64;31.68;39.46;;
49732;Laerm;43666;51.442;6.778;2024-03-08T05:34:18;36.64;30.89;39.70;;
49732;Laerm;43666;51.442;6.778;2024-03-08T05:36:45;36.64;30.89;39.70;;
49732;Laerm;43666;51.442;6.778;2024-03-08T05:39:18;36.65;30.54;39.46;;
49732;Laerm;43666;51.442;6.778;2024-03-08T05:41:44;36.64;29.92;39.68;;
49732;Laerm;43666;51.442;6.778;2024-03-08T05:44:10;36.63;29.92;40.03;;
49732;Laerm;43666;51.442;6.778;2024-03-08T05:46:36;36.64;29.92;39.81;;
49732;Laerm;43666;51.442;6.778;2024-03-08T05:49:05;36.63;26.91;39.21;;
49732;Laerm;43666;51.442;6.778;2024-03-08T05:51:31;36.64;29.92;39.58;;
49732;Laerm;43666;51.442;6.778;2024-03-08T05:53:58;36.64;30.89;39.81;;
49732;Laerm;43666;51.442;6.778;2024-03-08T05:56:24;36.62;29.92;39.58;;
49732;Laerm;43666;51.442;6.778;2024-03-08T05:58:50;36.64;30.89;39.58;;
49732;Laerm;43666;51.442;6.778;2024-03-08T06:01:16;36.66;30.54;39.70;;
49732;Laerm;43666;51.442;6.778;2024-03-08T06:03:41;36.65;31.68;39.81;;
49732;Laerm;43666;51.442;6.778;2024-03-08T06:06:12;36.65;30.89;39.58;;
49732;Laerm;43666;51.442;6.778;2024-03-08T06:08:38;36.64;30.89;39.92;;
49732;Laerm;43666;51.442;6.778;2024-03-08T06:11:04;36.65;29.92;39.92;;
49732;Laerm;43666;51.442;6.778;2024-03-08T06:13:31;36.63;28.67;39.58;;
49732;Laerm;43666;51.442;6.778;2024-03-08T06:15:57;36.63;30.89;39.34;;
49732;Laerm;43666;51.442;6.778;2024-03-08T06:18:23;36.67;31.68;39.58;;
49732;Laerm;43666;51.442;6.778;2024-03-08T06:20:48;36.64;30.89;39.58;;
49732;Laerm;43666;51.442;6.778;2024-03-08T06:23:14;36.61;30.89;40.13;;
49732;Laerm;43666;51.442;6.778;2024-03-08T06:25:43;36.68;29.92;39.70;;
49732;Laerm;43666;51.442;6.778;2024-03-08T06:28:09;36.64;29.92;39.70;;
49732;Laerm;43666;51.442;6.778;2024-03-08T06:30:35;36.69;30.89;39.70;;
49732;Laerm;43666;51.442;6.778;2024-03-08T06:33:01;36.68;30.89;39.58;;
49732;Laerm;43666;51.442;6.778;2024-03-08T06:35:26;36.65;30.89;39.58;;
49732;Laerm;43666;51.442;6.778;2024-03-08T06:37:52;36.64;31.68;39.89;;
49732;Laerm;43666;51.442;6.778;2024-03-08T06:40:18;36.65;31.68;39.35;;
49732;Laerm;43666;51.442;6.778;2024-03-08T06:42:44;36.66;30.89;39.92;;
49732;Laerm;43666;51.442;6.778;2024-03-08T06:45:11;36.68;29.92;39.70;;
49732;Laerm;43666;51.442;6.778;2024-03-08T06:47:37;36.65;31.68;39.58;;
49732;Laerm;43666;51.442;6.778;2024-03-08T06:50:03;36.67;31.68;39.46;;
49732;Laerm;43666;51.442;6.778;2024-03-08T06:52:29;36.69;31.68;39.58;;
49732;Laerm;43666;51.442;6.778;2024-03-08T06:54:55;36.66;30.89;39.81;;
49732;Laerm;43666;51.442;6.778;2024-03-08T06:57:22;36.68;31.68;39.81;;
49732;Laerm;43666;51.442;6.778;2024-03-08T06:59:48;36.70;29.92;39.46;;
49732;Laerm;43666;51.442;6.778;2024-03-08T07:02:14;36.67;31.68;39.34;;
49732;Laerm;43666;51.442;6.778;2024-03-08T07:04:40;36.67;29.92;39.81;;
49732;Laerm;43666;51.442;6.778;2024-03-08T07:07:05;36.68;30.89;39.70;;
49732;Laerm;43666;51.442;6.778;2024-03-08T07:09:37;36.66;30.89;39.58;;
49732;Laerm;43666;51.442;6.778;2024-03-08T07:12:03;36.67;30.89;39.58;;
49732;Laerm;43666;51.442;6.778;2024-03-08T07:14:29;36.69;31.68;39.58;;
49732;Laerm;43666;51.442;6.778;2024-03-08T07:16:56;36.70;31.68;39.81;;
49732;Laerm;43666;51.442;6.778;2024-03-08T07:19:22;36.69;29.92;39.58;;
49732;Laerm;43666;51.442;6.778;2024-03-08T07:21:49;36.70;31.68;39.58;;
49732;Laerm;43666;51.442;6.778;2024-03-08T07:24:14;36.73;32.35;39.46;;
49732;Laerm;43666;51.442;6.778;2024-03-08T07:26:43;36.71;30.89;39.70;;
49732;Laerm;43666;51.442;6.778;2024-03-08T07:29:09;36.71;29.92;39.70;;
49732;Laerm;43666;51.442;6.778;2024-03-08T07:31:35;36.72;31.68;39.58;;
49732;Laerm;43666;51.442;6.778;2024-03-08T07:34:15;36.74;29.92;39.81;;
49732;Laerm;43666;51.442;6.778;2024-03-08T07:36:42;36.73;31.68;39.81;;
49732;Laerm;43666;51.442;6.778;2024-03-08T07:39:08;36.75;30.89;39.70;;
49732;Laerm;43666;51.442;6.778;2024-03-08T07:41:40;36.84;31.68;49.63;;
49732;Laerm;43666;51.442;6.778;2024-03-08T07:44:09;36.78;30.89;39.70;;
49732;Laerm;43666;51.442;6.778;2024-03-08T07:46:34;36.78;31.68;39.46;;
49732;Laerm;43666;51.442;6.778;2024-03-08T07:49:01;36.78;30.89;39.58;;
49732;Laerm;43666;51.442;6.778;2024-03-08T07:51:28;36.83;29.92;40.33;;
49732;Laerm;43666;51.442;6.778;2024-03-08T07:53:54;36.85;31.68;39.92;;
49732;Laerm;43666;51.442;6.778;2024-03-08T07:56:20;36.87;31.68;39.81;;
49732;Laerm;43666;51.442;6.778;2024-03-08T07:58:47;36.83;32.35;39.58;;
49732;Laerm;43666;51.442;6.778;2024-03-08T08:01:16;36.86;32.35;39.92;;
49732;Laerm;43666;51.442;6.778;2024-03-08T08:03:43;36.87;31.68;39.58;;
49732;Laerm;43666;51.442;6.778;2024-03-08T08:06:09;36.86;31.68;39.78;;
49732;Laerm;43666;51.442;6.778;2024-03-08T08:08:35;36.87;31.68;39.58;;
49732;Laerm;43666;51.442;6.778;2024-03-08T08:11:02;36.90;32.00;40.03;;
49732;Laerm;43666;51.442;6.778;2024-03-08T08:13:28;36.92;31.68;39.58;;
49732;Laerm;43666;51.442;6.778;2024-03-08T08:15:57;36.96;31.68;39.58;;
49732;Laerm;43666;51.442;6.778;2024-03-08T08:18:23;36.97;32.35;40.23;;
49732;Laerm;43666;51.442;6.778;2024-03-08T08:20:51;36.99;32.35;40.13;;
49732;Laerm;43666;51.442;6.778;2024-03-08T08:23:18;36.97;32.35;39.46;;
49732;Laerm;43666;51.442;6.778;2024-03-08T08:25:45;37.00;32.93;39.81;;
49732;Laerm;43666;51.442;6.778;2024-03-08T08:28:11;37.01;32.35;39.92;;
49732;Laerm;43666;51.442;6.778;2024-03-08T08:30:38;37.04;32.93;40.03;;
49732;Laerm;43666;51.442;6.778;2024-03-08T08:33:04;37.03;32.35;39.81;;
49732;Laerm;43666;51.442;6.778;2024-03-08T08:35:31;37.03;30.89;40.13;;
49732;Laerm;43666;51.442;6.778;2024-03-08T08:37:58;37.05;32.35;39.92;;
49732;Laerm;43666;51.442;6.778;2024-03-08T08:40:25;37.04;32.35;40.33;;
49732;Laerm;43666;51.442;6.778;2024-03-08T08:42:51;37.08;32.93;39.92;;
49732;Laerm;43666;51.442;6.778;2024-03-08T08:45:18;37.10;32.93;39.70;;
49732;Laerm;43666;51.442;6.778;2024-03-08T08:47:44;37.12;32.35;40.03;;
49732;Laerm;43666;51.442;6.778;2024-03-08T08:50:11;37.14;32.93;39.89;;
49732;Laerm;43666;51.442;6.778;2024-03-08T08:52:40;37.17;32.93;39.92;;
49732;Laerm;43666;51.442;6.778;2024-03-08T08:55:06;37.21;33.44;39.68;;
49732;Laerm;43666;51.442;6.778;2024-03-08T08:57:32;37.22;31.68;39.92;;
49732;Laerm;43666;51.442;6.778;2024-03-08T08:59:59;37.24;32.93;39.81;;
49732;Laerm;43666;51.442;6.778;2024-03-08T09:02:26;37.28;32.93;39.70;;
49732;Laerm;43666;51.442;6.778;2024-03-08T09:04:52;37.33;32.93;39.81;;
49732;Laerm;43666;51.442;6.778;2024-03-08T09:07:17;37.36;33.44;40.03;;
49732;Laerm;43666;51.442;6.778;2024-03-08T09:09:44;37.39;33.44;40.23;;
49732;Laerm;43666;51.442;6.778;2024-03-08T09:12:10;37.37;33.44;39.81;;
49732;Laerm;43666;51.442;6.778;2024-03-08T09:14:40;37.40;32.93;39.92;;
49732;Laerm;43666;51.442;6.778;2024-03-08T09:17:05;37.45;33.44;39.81;;
49732;Laerm;43666;51.442;6.778;2024-03-08T09:19:34;37.46;34.31;40.03;;
49732;Laerm;43666;51.442;6.778;2024-03-08T09:22:01;37.46;32.93;40.03;;
49732;Laerm;43666;51.442;6.778;2024-03-08T09:24:26;37.46;33.44;40.23;;
49732;Laerm;43666;51.442;6.778;2024-03-08T09:26:52;37.51;33.90;40.43;;
49732;Laerm;43666;51.442;6.778;2024-03-08T09:29:18;37.54;34.31;39.92;;
49732;Laerm;43666;51.442;6.778;2024-03-08T09:31:44;37.59;34.69;40.23;;
49732;Laerm;43666;51.442;6.778;2024-03-08T09:34:11;37.58;33.90;40.13;;
49732;Laerm;43666;51.442;6.778;2024-03-08T09:36:37;37.54;33.90;40.33;;
49732;Laerm;43666;51.442;6.778;2024-03-08T09:39:03;37.56;33.90;39.99;;
49732;Laerm;43666;51.442;6.778;2024-03-08T09:41:33;37.61;33.90;40.03;;
49732;Laerm;43666;51.442;6.778;2024-03-08T09:44:00;37.64;34.31;40.33;;
49732;Laerm;43666;51.442;6.778;2024-03-08T09:46:26;37.66;34.31;40.13;;
49732;Laerm;43666;51.442;6.778;2024-03-08T09:48:53;37.69;34.31;40.13;;
49732;Laerm;43666;51.442;6.778;2024-03-08T09:51:21;37.71;34.31;40.03;;
49732;Laerm;43666;51.442;6.778;2024-03-08T09:53:49;37.74;34.31;40.43;;
49732;Laerm;43666;51.442;6.778;2024-03-08T09:56:15;37.82;34.69;40.33;;
49732;Laerm;43666;51.442;6.778;2024-03-08T09:58:41;37.83;34.69;40.33;;
49732;Laerm;43666;51.442;6.778;2024-03-08T10:01:25;37.83;34.31;40.33;;
49732;Laerm;43666;51.442;6.778;2024-03-08T10:03:52;37.84;33.90;40.23;;
49732;Laerm;43666;51.442;6.778;2024-03-08T10:06:21;37.83;34.31;40.23;;
49732;Laerm;43666;51.442;6.778;2024-03-08T10:08:47;37.84;34.31;40.13;;
49732;Laerm;43666;51.442;6.778;2024-03-08T10:11:14;37.90;34.69;40.43;;
49732;Laerm;43666;51.442;6.778;2024-03-08T10:13:40;37.95;34.69;40.62;;
49732;Laerm;43666;51.442;6.778;2024-03-08T10:16:06;37.94;34.69;40.71;;
49732;Laerm;43666;51.442;6.778;2024-03-08T10:18:32;37.91;33.90;40.43;;
49732;Laerm;43666;51.442;6.778;2024-03-08T10:21:02;37.93;34.31;40.43;;
49732;Laerm;43666;51.442;6.778;2024-03-08T10:23:29;37.99;33.90;40.33;;
49732;Laerm;43666;51.442;6.778;2024-03-08T10:25:55;38.03;34.69;40.43;;
49732;Laerm;43666;51.442;6.778;2024-03-08T10:28:23;38.06;34.69;40.43;;
49732;Laerm;43666;51.442;6.778;2024-03-08T10:30:52;38.09;34.31;40.36;;
49732;Laerm;43666;51.442;6.778;2024-03-08T10:33:18;38.16;34.69;40.63;;
49732;Laerm;43666;51.442;6.778;2024-03-08T10:35:44;38.16;34.69;40.43;;
49732;Laerm;43666;51.442;6.778;2024-03-08T10:38:10;38.15;35.04;40.36;;
49732;Laerm;43666;51.442;6.778;2024-03-08T10:40:38;38.18;35.01;40.71;;
49732;Laerm;43666;51.442;6.778;2024-03-08T10:43:05;38.17;35.36;40.53;;
49732;Laerm;43666;51.442;6.778;2024-03-08T10:45:36;38.20;35.04;40.53;;
49732;Laerm;43666;51.442;6.778;2024-03-08T10:50:28;38.18;35.04;40.62;;
49732;Laerm;43666;51.442;6.778;2024-03-08T10:52:54;38.20;34.69;40.89;;
49732;Laerm;43666;51.442;6.778;2024-03-08T10:55:22;38.21;35.04;40.43;;
49732;Laerm;43666;51.442;6.778;2024-03-08T10:57:52;38.25;35.04;40.89;;
49732;Laerm;43666;51.442;6.778;2024-03-08T11:00:20;38.25;34.69;40.62;;
49732;Laerm;43666;51.442;6.778;2024-03-08T11:02:52;38.23;34.69;40.71;;
49732;Laerm;43666;51.442;6.778;2024-03-08T11:08:19;38.24;35.04;40.53;;
49732;Laerm;43666;51.442;6.778;2024-03-08T11:10:48;38.27;34.69;40.53;;
49732;Laerm;43666;51.442;6.778;2024-03-08T11:13:37;38.27;35.04;40.53;;
49732;Laerm;43666;51.442;6.778;2024-03-08T11:16:09;38.28;35.36;40.53;;
49732;Laerm;43666;51.442;6.778;2024-03-08T11:18:36;38.29;33.90;40.62;;
49732;Laerm;43666;51.442;6.778;2024-03-08T11:21:03;38.34;35.31;40.43;;
49732;Laerm;43666;51.442;6.778;2024-03-08T11:23:32;38.34;35.66;40.53;;
49732;Laerm;43666;51.442;6.778;2024-03-08T11:25:59;38.36;32.35;40.71;;
49732;Laerm;43666;51.442;6.778;2024-03-08T11:28:25;38.34;35.36;40.43;;
49732;Laerm;43666;51.442;6.778;2024-03-08T11:33:27;38.33;35.36;40.62;;
49732;Laerm;43666;51.442;6.778;2024-03-08T11:38:29;38.35;34.69;40.98;;
49732;Laerm;43666;51.442;6.778;2024-03-08T11:40:56;38.34;35.04;40.62;;
49732;Laerm;43666;51.442;6.778;2024-03-08T11:43:22;38.34;35.04;40.88;;
49732;Laerm;43666;51.442;6.778;2024-03-08T11:45:48;38.34;35.36;40.71;;
49732;Laerm;43666;51.442;6.778;2024-03-08T11:48:14;38.32;35.04;40.43;;
49732;Laerm;43666;51.442;6.778;2024-03-08T11:50:40;38.30;31.68;40.62;;
49732;Laerm;43666;51.442;6.778;2024-03-08T11:53:05;38.30;35.36;40.71;;
49732;Laerm;43666;51.442;6.778;2024-03-08T11:55:32;38.31;35.04;40.98;;
49732;Laerm;43666;51.442;6.778;2024-03-08T11:58:02;38.28;34.69;41.96;;
49732;Laerm;43666;51.442;6.778;2024-03-08T12:00:28;38.28;34.31;40.62;;
49732;Laerm;43666;51.442;6.778;2024-03-08T12:03:01;38.28;35.04;40.45;;
49732;Laerm;43666;51.442;6.778;2024-03-08T12:05:27;38.31;35.31;41.06;;
49732;Laerm;43666;51.442;6.778;2024-03-08T12:07:57;38.29;34.69;41.14;;
49732;Laerm;43666;51.442;6.778;2024-03-08T12:10:23;38.33;35.36;42.53;;
49732;Laerm;43666;51.442;6.778;2024-03-08T12:12:53;38.32;35.04;40.71;;
49732;Laerm;43666;51.442;6.778;2024-03-08T12:15:21;38.31;35.66;40.53;;
49732;Laerm;43666;51.442;6.778;2024-03-08T12:17:48;38.31;35.04;40.89;;
49732;Laerm;43666;51.442;6.778;2024-03-08T12:20:18;38.32;35.36;40.89;;
49732;Laerm;43666;51.442;6.778;2024-03-08T12:22:44;38.33;34.69;40.53;;
49732;Laerm;43666;51.442;6.778;2024-03-08T12:25:11;38.35;35.36;40.71;;
49732;Laerm;43666;51.442;6.778;2024-03-08T12:27:40;38.37;35.66;40.54;;
49732;Laerm;43666;51.442;6.778;2024-03-08T12:30:19;38.37;35.04;40.80;;
49732;Laerm;43666;51.442;6.778;2024-03-08T12:32:47;38.34;35.04;40.62;;
49732;Laerm;43666;51.442;6.778;2024-03-08T12:35:13;38.34;34.69;40.80;;
49732;Laerm;43666;51.442;6.778;2024-03-08T12:37:39;38.34;35.04;40.62;;
49732;Laerm;43666;51.442;6.778;2024-03-08T12:40:08;38.39;33.90;40.63;;
49732;Laerm;43666;51.442;6.778;2024-03-08T12:42:35;38.37;34.69;40.71;;
49732;Laerm;43666;51.442;6.778;2024-03-08T12:45:00;38.37;35.04;40.80;;
49732;Laerm;43666;51.442;6.778;2024-03-08T12:47:27;38.38;35.36;40.62;;
49732;Laerm;43666;51.442;6.778;2024-03-08T12:49:55;38.38;35.04;40.62;;
49732;Laerm;43666;51.442;6.778;2024-03-08T12:52:21;38.42;35.04;40.71;;
49732;Laerm;43666;51.442;6.778;2024-03-08T12:54:47;38.43;35.04;41.14;;
49732;Laerm;43666;51.442;6.778;2024-03-08T12:57:13;38.42;34.31;40.53;;
49732;Laerm;43666;51.442;6.778;2024-03-08T12:59:39;38.47;35.36;40.89;;
49732;Laerm;43666;51.442;6.778;2024-03-08T13:02:08;38.48;35.04;40.71;;
49732;Laerm;43666;51.442;6.778;2024-03-08T13:04:36;38.47;35.31;40.80;;
49732;Laerm;43666;51.442;6.778;2024-03-08T13:07:02;38.50;35.04;41.06;;
49732;Laerm;43666;51.442;6.778;2024-03-08T13:09:28;38.48;35.04;40.80;;
49732;Laerm;43666;51.442;6.778;2024-03-08T13:11:54;38.52;34.69;40.98;;
49732;Laerm;43666;51.442;6.778;2024-03-08T13:14:20;38.48;34.69;40.89;;
49732;Laerm;43666;51.442;6.778;2024-03-08T13:16:47;38.48;35.36;40.89;;
49732;Laerm;43666;51.442;6.778;2024-03-08T13:19:13;38.50;35.04;40.71;;
49732;Laerm;43666;51.442;6.778;2024-03-08T13:21:39;38.52;35.04;40.80;;
49732;Laerm;43666;51.442;6.778;2024-03-08T13:24:05;38.50;35.04;40.98;;
49732;Laerm;43666;51.442;6.778;2024-03-08T13:26:31;38.39;34.69;40.89;;
49732;Laerm;43666;51.442;6.778;2024-03-08T13:28:59;38.27;33.44;40.98;;
49732;Laerm;43666;51.442;6.778;2024-03-08T13:31:25;38.24;34.31;40.89;;
49732;Laerm;43666;51.442;6.778;2024-03-08T13:33:51;38.27;33.97;40.71;;
49732;Laerm;43666;51.442;6.778;2024-03-08T13:36:23;38.23;34.31;40.89;;
49732;Laerm;43666;51.442;6.778;2024-03-08T13:38:50;38.20;33.44;40.80;;
49732;Laerm;43666;51.442;6.778;2024-03-08T13:41:16;38.25;34.69;40.89;;
49732;Laerm;43666;51.442;6.778;2024-03-08T13:43:46;38.18;33.90;41.06;;
49732;Laerm;43666;51.442;6.778;2024-03-08T13:46:12;38.03;33.90;41.06;;
49732;Laerm;43666;51.442;6.778;2024-03-08T13:48:38;38.09;34.31;40.62;;
49732;Laerm;43666;51.442;6.778;2024-03-08T13:51:04;38.02;34.31;40.53;;
49732;Laerm;43666;51.442;6.778;2024-03-08T13:53:32;38.03;34.69;40.62;;